sensor_id;sensor_type;location;lat;lon;timestamp;pressure;altitude;pressure_sealevel;temperature;humidity
13312;BME280;34033;48.672;9.376;2023-01-31T00:01:21;99440.56;;;4.01;80.23
13312;BME280;34033;48.672;9.376;2023-01-31T00:03:47;99442.66;;;3.95;80.01
13312;BME280;34033;48.672;9.376;2023-01-31T00:08:39;99452.91;;;4.03;80.24
13312;BME280;34033;48.672;9.376;2023-01-31T00:11:04;99453.41;;;4.14;80.13
13312;BME280;34033;48.672;9.376;2023-01-31T00:13:30;99446.94;;;4.18;79.56
13312;BME280;34033;48.672;9.376;2023-01-31T00:15:56;99444.16;;;4.18;79.40
13312;BME280;34033;48.672;9.376;2023-01-31T00:18:21;99434.06;;;4.14;79.66
13312;BME280;34033;48.672;9.376;2023-01-31T00:20:47;99437.78;;;4.09;79.52
13312;BME280;34033;48.672;9.376;2023-01-31T00:23:12;99435.50;;;4.03;79.75
13312;BME280;34033;48.672;9.376;2023-01-31T00:25:37;99434.38;;;4.04;79.79
13312;BME280;34033;48.672;9.376;2023-01-31T00:28:03;99439.28;;;4.07;79.81
13312;BME280;34033;48.672;9.376;2023-01-31T00:30:28;99440.72;;;4.04;79.76
13312;BME280;34033;48.672;9.376;2023-01-31T00:32:54;99441.84;;;4.03;80.39
13312;BME280;34033;48.672;9.376;2023-01-31T00:35:19;99441.03;;;4.03;80.65
13312;BME280;34033;48.672;9.376;2023-01-31T00:37:44;99443.31;;;4.01;80.30
13312;BME280;34033;48.672;9.376;2023-01-31T00:40:10;99441.84;;;4.03;80.65
13312;BME280;34033;48.672;9.376;2023-01-31T00:42:35;99435.34;;;3.99;80.50
13312;BME280;34033;48.672;9.376;2023-01-31T00:45:01;99444.63;;;3.95;80.66
13312;BME280;34033;48.672;9.376;2023-01-31T00:47:26;99433.03;;;3.93;80.54
13312;BME280;34033;48.672;9.376;2023-01-31T00:49:52;99438.41;;;3.89;80.71
13312;BME280;34033;48.672;9.376;2023-01-31T00:52:17;99436.44;;;3.81;81.04
13312;BME280;34033;48.672;9.376;2023-01-31T00:54:42;99438.22;;;3.77;81.31
13312;BME280;34033;48.672;9.376;2023-01-31T00:57:08;99446.22;;;3.78;81.47
13312;BME280;34033;48.672;9.376;2023-01-31T00:59:33;99449.75;;;3.70;81.71
13312;BME280;34033;48.672;9.376;2023-01-31T01:01:58;99445.22;;;3.74;82.12
13312;BME280;34033;48.672;9.376;2023-01-31T01:04:24;99442.47;;;3.83;81.40
13312;BME280;34033;48.672;9.376;2023-01-31T01:06:49;99436.13;;;3.83;80.86
13312;BME280;34033;48.672;9.376;2023-01-31T01:09:15;99437.44;;;3.85;81.16
13312;BME280;34033;48.672;9.376;2023-01-31T01:11:41;99443.75;;;3.77;80.82
13312;BME280;34033;48.672;9.376;2023-01-31T01:14:06;99445.56;;;3.82;80.54
13312;BME280;34033;48.672;9.376;2023-01-31T01:16:34;99440.38;;;3.89;80.88
13312;BME280;34033;48.672;9.376;2023-01-31T01:19:01;99437.44;;;3.85;80.06
13312;BME280;34033;48.672;9.376;2023-01-31T01:21:28;99430.44;;;3.79;80.46
13312;BME280;34033;48.672;9.376;2023-01-31T01:23:58;99437.72;;;3.75;80.55
13312;BME280;34033;48.672;9.376;2023-01-31T01:26:26;99432.50;;;3.65;80.50
13312;BME280;34033;48.672;9.376;2023-01-31T01:28:53;99422.75;;;3.67;80.99
13312;BME280;34033;48.672;9.376;2023-01-31T01:31:19;99434.13;;;3.66;81.72
13312;BME280;34033;48.672;9.376;2023-01-31T01:33:46;99426.19;;;3.73;81.28
13312;BME280;34033;48.672;9.376;2023-01-31T01:36:14;99427.81;;;3.74;81.00
13312;BME280;34033;48.672;9.376;2023-01-31T01:38:46;99432.34;;;3.70;80.25
13312;BME280;34033;48.672;9.376;2023-01-31T01:41:13;99428.22;;;3.59;80.11
13312;BME280;34033;48.672;9.376;2023-01-31T01:43:46;99432.31;;;3.61;80.47
13312;BME280;34033;48.672;9.376;2023-01-31T01:46:16;99432.47;;;3.56;80.35
13312;BME280;34033;48.672;9.376;2023-01-31T01:48:44;99428.56;;;3.57;80.03
13312;BME280;34033;48.672;9.376;2023-01-31T01:51:11;99443.91;;;3.72;79.68
13312;BME280;34033;48.672;9.376;2023-01-31T01:53:41;99433.31;;;3.65;79.36
13312;BME280;34033;48.672;9.376;2023-01-31T01:56:38;99439.19;;;3.81;79.66
13312;BME280;34033;48.672;9.376;2023-01-31T01:59:09;99440.06;;;3.90;78.85
13312;BME280;34033;48.672;9.376;2023-01-31T02:01:37;99444.63;;;3.95;78.72
13312;BME280;34033;48.672;9.376;2023-01-31T02:04:05;99455.63;;;3.86;78.30
13312;BME280;34033;48.672;9.376;2023-01-31T02:06:31;99446.56;;;3.86;78.61
13312;BME280;34033;48.672;9.376;2023-01-31T02:08:57;99452.72;;;3.83;78.74
13312;BME280;34033;48.672;9.376;2023-01-31T02:11:28;99450.25;;;3.81;78.82
13312;BME280;34033;48.672;9.376;2023-01-31T02:13:59;99455.16;;;3.84;78.86
13312;BME280;34033;48.672;9.376;2023-01-31T02:16:27;99449.44;;;3.81;79.12
13312;BME280;34033;48.672;9.376;2023-01-31T02:18:52;99453.34;;;3.71;78.99
13312;BME280;34033;48.672;9.376;2023-01-31T02:35:09;99466.00;;;3.63;79.18
13312;BME280;34033;48.672;9.376;2023-01-31T02:37:48;99468.44;;;3.65;79.25
13312;BME280;34033;48.672;9.376;2023-01-31T02:43:07;99456.09;;;3.71;79.01
13312;BME280;34033;48.672;9.376;2023-01-31T02:51:06;99454.19;;;3.80;78.27
13312;BME280;34033;48.672;9.376;2023-01-31T02:53:39;99466.19;;;3.75;78.26
13312;BME280;34033;48.672;9.376;2023-01-31T02:59:12;99481.72;;;3.54;78.75
13312;BME280;34033;48.672;9.376;2023-01-31T03:01:42;99490.84;;;3.55;78.55
13312;BME280;34033;48.672;9.376;2023-01-31T03:04:11;99485.50;;;3.58;78.80
13312;BME280;34033;48.672;9.376;2023-01-31T03:06:47;99502.44;;;3.65;78.96
13312;BME280;34033;48.672;9.376;2023-01-31T03:09:29;99498.56;;;3.75;78.94
13312;BME280;34033;48.672;9.376;2023-01-31T03:18:09;99496.81;;;3.79;77.83
13312;BME280;34033;48.672;9.376;2023-01-31T03:20:45;99502.19;;;3.84;78.16
13312;BME280;34033;48.672;9.376;2023-01-31T03:23:17;99501.06;;;3.85;77.60
13312;BME280;34033;48.672;9.376;2023-01-31T03:25:45;99497.78;;;3.83;77.99
13312;BME280;34033;48.672;9.376;2023-01-31T03:28:15;99500.41;;;3.88;77.64
13312;BME280;34033;48.672;9.376;2023-01-31T03:30:47;99490.31;;;3.92;77.68
13312;BME280;34033;48.672;9.376;2023-01-31T03:33:18;99497.50;;;3.93;77.54
13312;BME280;34033;48.672;9.376;2023-01-31T03:35:51;99503.06;;;4.02;77.55
13312;BME280;34033;48.672;9.376;2023-01-31T03:38:22;99509.28;;;4.07;77.01
13312;BME280;34033;48.672;9.376;2023-01-31T03:40:55;99518.69;;;4.06;77.02
13312;BME280;34033;48.672;9.376;2023-01-31T03:43:27;99518.00;;;3.92;76.62
13312;BME280;34033;48.672;9.376;2023-01-31T03:45:59;99522.53;;;3.88;77.20
13312;BME280;34033;48.672;9.376;2023-01-31T03:48:31;99516.78;;;3.76;77.15
13312;BME280;34033;48.672;9.376;2023-01-31T03:50:59;99525.75;;;3.82;77.35
13312;BME280;34033;48.672;9.376;2023-01-31T03:53:34;99520.38;;;3.76;78.18
13312;BME280;34033;48.672;9.376;2023-01-31T03:58:48;99517.00;;;3.80;78.49
13312;BME280;34033;48.672;9.376;2023-01-31T04:01:16;99514.03;;;3.76;78.07
13312;BME280;34033;48.672;9.376;2023-01-31T04:03:46;99513.72;;;3.77;78.29
13312;BME280;34033;48.672;9.376;2023-01-31T04:06:15;99525.75;;;3.73;78.46
13312;BME280;34033;48.672;9.376;2023-01-31T04:08:41;99528.97;;;3.75;78.63
13312;BME280;34033;48.672;9.376;2023-01-31T04:11:10;99534.34;;;3.71;78.21
13312;BME280;34033;48.672;9.376;2023-01-31T04:13:37;99528.97;;;3.75;79.10
13312;BME280;34033;48.672;9.376;2023-01-31T04:16:03;99530.00;;;3.79;78.71
13312;BME280;34033;48.672;9.376;2023-01-31T04:18:28;99536.06;;;3.90;78.28
13312;BME280;34033;48.672;9.376;2023-01-31T04:20:54;99534.31;;;4.02;77.05
13312;BME280;34033;48.672;9.376;2023-01-31T04:23:20;99539.19;;;4.05;77.52
13312;BME280;34033;48.672;9.376;2023-01-31T04:25:45;99546.06;;;4.08;77.33
13312;BME280;34033;48.672;9.376;2023-01-31T04:28:11;99548.34;;;4.14;76.92
13312;BME280;34033;48.672;9.376;2023-01-31T04:30:36;99537.41;;;4.09;76.69
13312;BME280;34033;48.672;9.376;2023-01-31T04:33:01;99541.19;;;4.13;76.68
13312;BME280;34033;48.672;9.376;2023-01-31T04:35:27;99539.56;;;4.12;76.49
13312;BME280;34033;48.672;9.376;2023-01-31T04:37:52;99536.78;;;4.12;75.77
13312;BME280;34033;48.672;9.376;2023-01-31T04:40:17;99534.66;;;4.09;76.37
13312;BME280;34033;48.672;9.376;2023-01-31T04:42:43;99537.22;;;3.97;75.88
13312;BME280;34033;48.672;9.376;2023-01-31T04:45:09;99533.47;;;3.93;76.52
13312;BME280;34033;48.672;9.376;2023-01-31T04:47:34;99537.66;;;3.82;76.47
13312;BME280;34033;48.672;9.376;2023-01-31T04:49:59;99534.50;;;3.75;77.02
13312;BME280;34033;48.672;9.376;2023-01-31T04:52:25;99536.06;;;3.59;77.43
13312;BME280;34033;48.672;9.376;2023-01-31T04:54:50;99534.25;;;3.54;77.86
13312;BME280;34033;48.672;9.376;2023-01-31T04:57:15;99534.25;;;3.54;77.80
13312;BME280;34033;48.672;9.376;2023-01-31T04:59:41;99547.75;;;3.47;77.50
13312;BME280;34033;48.672;9.376;2023-01-31T05:02:06;99544.31;;;3.42;78.37
13312;BME280;34033;48.672;9.376;2023-01-31T05:04:32;99540.78;;;3.27;78.20
13312;BME280;34033;48.672;9.376;2023-01-31T05:06:57;99538.28;;;3.17;78.72
13312;BME280;34033;48.672;9.376;2023-01-31T05:09:23;99524.91;;;3.11;79.78
13312;BME280;34033;48.672;9.376;2023-01-31T05:11:49;99526.38;;;3.08;80.15
13312;BME280;34033;48.672;9.376;2023-01-31T05:14:15;99528.09;;;3.04;80.12
13312;BME280;34033;48.672;9.376;2023-01-31T05:16:40;99523.34;;;2.96;79.67
13312;BME280;34033;48.672;9.376;2023-01-31T05:19:08;99537.16;;;2.96;80.27
13312;BME280;34033;48.672;9.376;2023-01-31T05:21:33;99530.06;;;3.04;81.77
13312;BME280;34033;48.672;9.376;2023-01-31T05:24:19;99535.25;;;3.27;80.63
13312;BME280;34033;48.672;9.376;2023-01-31T05:26:44;99535.00;;;3.38;80.26
13312;BME280;34033;48.672;9.376;2023-01-31T05:29:09;99540.44;;;3.51;80.42
13312;BME280;34033;48.672;9.376;2023-01-31T05:31:35;99538.53;;;3.60;79.54
13312;BME280;34033;48.672;9.376;2023-01-31T05:34:00;99542.41;;;3.28;78.90
13312;BME280;34033;48.672;9.376;2023-01-31T05:36:25;99539.66;;;3.28;79.85
13312;BME280;34033;48.672;9.376;2023-01-31T05:38:51;99537.47;;;3.48;81.06
13312;BME280;34033;48.672;9.376;2023-01-31T05:41:16;99527.56;;;3.47;79.35
13312;BME280;34033;48.672;9.376;2023-01-31T05:43:41;99535.25;;;3.27;78.83
13312;BME280;34033;48.672;9.376;2023-01-31T05:46:06;99537.47;;;3.17;79.25
13312;BME280;34033;48.672;9.376;2023-01-31T05:48:32;99545.69;;;3.30;80.57
13312;BME280;34033;48.672;9.376;2023-01-31T05:50:57;99548.38;;;3.44;81.37
13312;BME280;34033;48.672;9.376;2023-01-31T05:53:22;99550.09;;;3.62;80.91
13312;BME280;34033;48.672;9.376;2023-01-31T05:55:48;99550.31;;;3.74;79.56
13312;BME280;34033;48.672;9.376;2023-01-31T05:58:14;99542.88;;;3.84;78.66
13312;BME280;34033;48.672;9.376;2023-01-31T06:00:39;99543.56;;;3.98;78.07
13312;BME280;34033;48.672;9.376;2023-01-31T06:03:05;99542.47;;;4.07;78.55
13312;BME280;34033;48.672;9.376;2023-01-31T06:05:30;99552.06;;;4.01;76.63
13312;BME280;34033;48.672;9.376;2023-01-31T06:07:56;99545.34;;;3.94;76.33
13312;BME280;34033;48.672;9.376;2023-01-31T06:10:21;99547.75;;;3.87;76.96
13312;BME280;34033;48.672;9.376;2023-01-31T06:12:47;99542.22;;;3.87;77.93
13312;BME280;34033;48.672;9.376;2023-01-31T06:15:13;99539.97;;;3.89;76.70
13312;BME280;34033;48.672;9.376;2023-01-31T06:17:38;99549.38;;;3.88;76.30
13312;BME280;34033;48.672;9.376;2023-01-31T06:20:04;99549.25;;;3.93;76.98
13312;BME280;34033;48.672;9.376;2023-01-31T06:22:29;99559.28;;;3.80;76.60
13312;BME280;34033;48.672;9.376;2023-01-31T06:24:55;99558.19;;;3.59;77.25
13312;BME280;34033;48.672;9.376;2023-01-31T06:27:20;99563.13;;;3.70;77.53
13312;BME280;34033;48.672;9.376;2023-01-31T06:29:45;99562.53;;;3.82;77.22
13312;BME280;34033;48.672;9.376;2023-01-31T06:32:11;99565.13;;;3.78;76.78
13312;BME280;34033;48.672;9.376;2023-01-31T06:34:36;99561.03;;;3.76;76.55
13312;BME280;34033;48.672;9.376;2023-01-31T06:37:02;99569.34;;;3.76;76.15
13312;BME280;34033;48.672;9.376;2023-01-31T06:39:27;99561.63;;;3.95;77.05
13312;BME280;34033;48.672;9.376;2023-01-31T06:41:53;99556.72;;;3.92;76.39
13312;BME280;34033;48.672;9.376;2023-01-31T06:44:18;99562.00;;;4.02;76.17
13312;BME280;34033;48.672;9.376;2023-01-31T06:46:43;99568.66;;;4.01;75.47
13312;BME280;34033;48.672;9.376;2023-01-31T06:49:09;99561.13;;;3.93;75.01
13312;BME280;34033;48.672;9.376;2023-01-31T06:51:34;99568.91;;;3.83;75.49
13312;BME280;34033;48.672;9.376;2023-01-31T06:53:59;99562.81;;;3.72;75.89
13312;BME280;34033;48.672;9.376;2023-01-31T06:56:25;99572.34;;;3.57;76.57
13312;BME280;34033;48.672;9.376;2023-01-31T06:58:50;99570.97;;;3.77;76.72
13312;BME280;34033;48.672;9.376;2023-01-31T07:01:15;99569.25;;;3.59;75.29
13312;BME280;34033;48.672;9.376;2023-01-31T07:03:41;99563.13;;;3.70;76.88
13312;BME280;34033;48.672;9.376;2023-01-31T07:06:07;99565.44;;;3.77;75.98
13312;BME280;34033;48.672;9.376;2023-01-31T07:08:33;99561.56;;;3.78;75.82
13312;BME280;34033;48.672;9.376;2023-01-31T07:10:59;99565.66;;;3.89;76.55
13312;BME280;34033;48.672;9.376;2023-01-31T07:13:28;99561.09;;;3.85;75.29
13312;BME280;34033;48.672;9.376;2023-01-31T07:15:54;99563.41;;;3.91;75.50
13312;BME280;34033;48.672;9.376;2023-01-31T07:18:19;99560.88;;;3.72;75.30
13312;BME280;34033;48.672;9.376;2023-01-31T07:20:45;99565.72;;;3.67;75.68
13312;BME280;34033;48.672;9.376;2023-01-31T07:23:10;99557.81;;;3.74;76.36
13312;BME280;34033;48.672;9.376;2023-01-31T07:25:36;99559.16;;;3.85;75.99
13312;BME280;34033;48.672;9.376;2023-01-31T07:28:01;99552.94;;;3.80;75.46
13312;BME280;34033;48.672;9.376;2023-01-31T07:30:28;99561.38;;;3.74;76.16
13312;BME280;34033;48.672;9.376;2023-01-31T07:32:53;99563.94;;;3.71;75.76
13312;BME280;34033;48.672;9.376;2023-01-31T07:35:19;99568.06;;;3.82;76.57
13312;BME280;34033;48.672;9.376;2023-01-31T07:37:45;99562.25;;;3.92;76.31
13312;BME280;34033;48.672;9.376;2023-01-31T07:40:13;99565.16;;;3.87;74.87
13312;BME280;34033;48.672;9.376;2023-01-31T07:42:39;99564.91;;;4.06;75.40
13312;BME280;34033;48.672;9.376;2023-01-31T07:45:05;99567.63;;;3.97;75.08
13312;BME280;34033;48.672;9.376;2023-01-31T07:47:31;99575.53;;;4.12;75.48
13312;BME280;34033;48.672;9.376;2023-01-31T07:49:57;99576.69;;;4.20;74.19
13312;BME280;34033;48.672;9.376;2023-01-31T07:52:22;99581.84;;;4.04;73.23
13312;BME280;34033;48.672;9.376;2023-01-31T07:54:47;99576.59;;;3.94;73.53
13312;BME280;34033;48.672;9.376;2023-01-31T07:57:13;99578.41;;;3.99;74.81
13312;BME280;34033;48.672;9.376;2023-01-31T07:59:41;99577.25;;;4.00;74.55
13312;BME280;34033;48.672;9.376;2023-01-31T08:02:10;99580.81;;;3.92;74.83
13312;BME280;34033;48.672;9.376;2023-01-31T08:04:54;99574.81;;;3.98;75.47
13312;BME280;34033;48.672;9.376;2023-01-31T08:07:20;99575.84;;;4.11;75.48
13312;BME280;34033;48.672;9.376;2023-01-31T08:09:45;99571.47;;;4.18;75.07
13312;BME280;34033;48.672;9.376;2023-01-31T08:12:13;99576.38;;;4.22;74.80
13312;BME280;34033;48.672;9.376;2023-01-31T08:14:39;99575.84;;;4.11;73.53
13312;BME280;34033;48.672;9.376;2023-01-31T08:17:04;99578.31;;;4.12;74.28
13312;BME280;34033;48.672;9.376;2023-01-31T08:19:32;99566.22;;;4.08;74.29
13312;BME280;34033;48.672;9.376;2023-01-31T08:21:58;99572.41;;;4.05;74.48
13312;BME280;34033;48.672;9.376;2023-01-31T08:24:24;99568.28;;;3.94;74.19
13312;BME280;34033;48.672;9.376;2023-01-31T08:26:49;99572.50;;;3.92;74.72
13312;BME280;34033;48.672;9.376;2023-01-31T08:29:14;99578.75;;;4.06;74.92
13312;BME280;34033;48.672;9.376;2023-01-31T08:31:40;99573.19;;;3.97;73.88
13312;BME280;34033;48.672;9.376;2023-01-31T08:34:06;99568.81;;;3.96;75.05
13312;BME280;34033;48.672;9.376;2023-01-31T08:36:32;99570.31;;;4.11;74.87
13312;BME280;34033;48.672;9.376;2023-01-31T08:38:57;99576.06;;;4.32;75.36
13312;BME280;34033;48.672;9.376;2023-01-31T08:41:24;99578.00;;;4.31;73.21
13312;BME280;34033;48.672;9.376;2023-01-31T08:43:50;99583.44;;;4.53;73.95
13312;BME280;34033;48.672;9.376;2023-01-31T08:46:17;99584.91;;;4.51;71.89
13312;BME280;34033;48.672;9.376;2023-01-31T08:48:42;99571.91;;;4.51;71.87
13312;BME280;34033;48.672;9.376;2023-01-31T08:51:10;99573.19;;;4.54;71.76
13312;BME280;34033;48.672;9.376;2023-01-31T08:53:37;99559.19;;;4.59;71.99
13312;BME280;34033;48.672;9.376;2023-01-31T08:56:04;99567.28;;;4.47;71.61
13312;BME280;34033;48.672;9.376;2023-01-31T08:58:31;99559.53;;;4.66;72.18
13312;BME280;34033;48.672;9.376;2023-01-31T09:01:01;99558.03;;;4.60;71.63
13312;BME280;34033;48.672;9.376;2023-01-31T09:03:27;99560.50;;;4.70;72.16
13312;BME280;34033;48.672;9.376;2023-01-31T09:05:53;99559.53;;;4.66;70.76
13312;BME280;34033;48.672;9.376;2023-01-31T09:08:18;99558.38;;;4.67;71.45
13312;BME280;34033;48.672;9.376;2023-01-31T09:10:50;99564.25;;;4.74;71.13
13312;BME280;34033;48.672;9.376;2023-01-31T09:13:16;99567.50;;;4.76;70.73
13312;BME280;34033;48.672;9.376;2023-01-31T09:15:41;99568.97;;;4.82;70.15
13312;BME280;34033;48.672;9.376;2023-01-31T09:18:06;99556.09;;;4.78;70.24
13312;BME280;34033;48.672;9.376;2023-01-31T09:20:31;99563.25;;;4.70;70.06
13312;BME280;34033;48.672;9.376;2023-01-31T09:22:57;99554.31;;;4.73;69.81
13312;BME280;34033;48.672;9.376;2023-01-31T09:25:22;99567.84;;;4.83;69.74
13312;BME280;34033;48.672;9.376;2023-01-31T09:27:51;99558.53;;;4.96;70.13
13312;BME280;34033;48.672;9.376;2023-01-31T09:30:16;99571.09;;;4.94;69.47
13312;BME280;34033;48.672;9.376;2023-01-31T09:32:42;99576.34;;;4.95;69.15
13312;BME280;34033;48.672;9.376;2023-01-31T09:35:08;99566.72;;;5.01;69.05
13312;BME280;34033;48.672;9.376;2023-01-31T09:37:33;99552.34;;;5.08;68.81
13312;BME280;34033;48.672;9.376;2023-01-31T09:39:59;99559.19;;;5.19;67.67
13312;BME280;34033;48.672;9.376;2023-01-31T09:42:36;99560.94;;;5.41;67.90
13312;BME280;34033;48.672;9.376;2023-01-31T09:45:27;99549.81;;;5.58;66.87
13312;BME280;34033;48.672;9.376;2023-01-31T09:47:55;99555.19;;;5.63;66.18
13312;BME280;34033;48.672;9.376;2023-01-31T09:50:35;99550.94;;;5.57;65.51
13312;BME280;34033;48.672;9.376;2023-01-31T09:53:04;99550.81;;;5.54;66.48
13312;BME280;34033;48.672;9.376;2023-01-31T09:55:47;99561.91;;;5.62;66.97
13312;BME280;34033;48.672;9.376;2023-01-31T10:06:44;99552.84;;;5.82;64.37
13312;BME280;34033;48.672;9.376;2023-01-31T10:09:22;99558.38;;;5.82;63.74
13312;BME280;34033;48.672;9.376;2023-01-31T10:11:52;99555.63;;;5.82;64.04
13312;BME280;34033;48.672;9.376;2023-01-31T10:14:34;99550.53;;;5.84;63.76
13312;BME280;34033;48.672;9.376;2023-01-31T10:20:00;99555.28;;;5.84;63.47
13312;BME280;34033;48.672;9.376;2023-01-31T10:22:40;99558.72;;;5.90;63.74
13312;BME280;34033;48.672;9.376;2023-01-31T10:25:20;99553.94;;;5.99;63.83
13312;BME280;34033;48.672;9.376;2023-01-31T10:28:04;99565.06;;;5.99;63.61
13312;BME280;34033;48.672;9.376;2023-01-31T10:30:40;99560.66;;;5.98;63.26
13312;BME280;34033;48.672;9.376;2023-01-31T10:33:37;99569.03;;;6.18;63.67
13312;BME280;34033;48.672;9.376;2023-01-31T10:36:03;99568.41;;;6.13;62.74
13312;BME280;34033;48.672;9.376;2023-01-31T10:38:54;99539.69;;;6.09;62.08
13312;BME280;34033;48.672;9.376;2023-01-31T10:41:35;99529.28;;;5.97;62.31
13312;BME280;34033;48.672;9.376;2023-01-31T10:44:07;99530.31;;;5.93;62.44
13312;BME280;34033;48.672;9.376;2023-01-31T10:46:37;99526.91;;;5.87;62.78
13312;BME280;34033;48.672;9.376;2023-01-31T10:49:03;99526.56;;;5.89;62.98
13312;BME280;34033;48.672;9.376;2023-01-31T10:51:34;99529.97;;;5.94;62.55
13312;BME280;34033;48.672;9.376;2023-01-31T10:55:11;99530.78;;;5.95;62.14
13312;BME280;34033;48.672;9.376;2023-01-31T10:57:07;99525.69;;;6.05;62.16
13312;BME280;34033;48.672;9.376;2023-01-31T10:59:37;99529.53;;;6.13;61.58
13312;BME280;34033;48.672;9.376;2023-01-31T11:02:17;99526.09;;;6.16;61.10
13312;BME280;34033;48.672;9.376;2023-01-31T11:04:43;99530.72;;;6.03;61.17
13312;BME280;34033;48.672;9.376;2023-01-31T11:07:08;99522.94;;;6.26;61.39
13312;BME280;34033;48.672;9.376;2023-01-31T11:09:38;99527.91;;;6.41;61.09
13312;BME280;34033;48.672;9.376;2023-01-31T11:12:05;99516.34;;;6.60;60.66
13312;BME280;34033;48.672;9.376;2023-01-31T11:14:31;99511.69;;;6.73;59.44
13312;BME280;34033;48.672;9.376;2023-01-31T11:17:01;99507.31;;;6.84;58.15
13312;BME280;34033;48.672;9.376;2023-01-31T11:19:34;99520.03;;;6.73;57.90
13312;BME280;34033;48.672;9.376;2023-01-31T11:22:02;99504.94;;;6.74;58.07
13312;BME280;34033;48.672;9.376;2023-01-31T11:24:30;99496.28;;;6.75;57.92
13312;BME280;34033;48.672;9.376;2023-01-31T11:27:06;99483.66;;;6.98;58.90
13312;BME280;34033;48.672;9.376;2023-01-31T11:29:35;99478.75;;;7.16;57.52
13312;BME280;34033;48.672;9.376;2023-01-31T11:32:04;99470.88;;;7.30;56.39
13312;BME280;34033;48.672;9.376;2023-01-31T11:34:31;99475.16;;;7.28;55.07
13312;BME280;34033;48.672;9.376;2023-01-31T11:37:05;99480.16;;;7.22;55.54
13312;BME280;34033;48.672;9.376;2023-01-31T11:39:35;99473.13;;;7.04;55.69
13312;BME280;34033;48.672;9.376;2023-01-31T11:42:13;99469.41;;;7.00;56.31
13312;BME280;34033;48.672;9.376;2023-01-31T11:50:02;99460.13;;;6.96;55.87
13312;BME280;34033;48.672;9.376;2023-01-31T11:52:31;99447.28;;;7.03;56.34
13312;BME280;34033;48.672;9.376;2023-01-31T11:55:00;99447.94;;;7.21;56.66
13312;BME280;34033;48.672;9.376;2023-01-31T11:57:32;99441.88;;;7.19;56.30
13312;BME280;34033;48.672;9.376;2023-01-31T12:00:00;99450.50;;;7.26;57.09
13312;BME280;34033;48.672;9.376;2023-01-31T12:02:31;99450.13;;;6.95;56.69
13312;BME280;34033;48.672;9.376;2023-01-31T12:04:59;99446.91;;;6.93;56.54
13312;BME280;34033;48.672;9.376;2023-01-31T12:07:41;99430.09;;;6.89;56.82
13312;BME280;34033;48.672;9.376;2023-01-31T12:12:52;99406.28;;;6.67;57.12
13312;BME280;34033;48.672;9.376;2023-01-31T12:15:17;99420.91;;;6.77;57.58
13312;BME280;34033;48.672;9.376;2023-01-31T12:17:45;99428.09;;;6.78;57.57
13312;BME280;34033;48.672;9.376;2023-01-31T12:22:52;99427.41;;;6.81;57.46
13312;BME280;34033;48.672;9.376;2023-01-31T12:30:51;99416.34;;;6.93;56.59
13312;BME280;34033;48.672;9.376;2023-01-31T12:36:38;99410.03;;;6.84;57.22
13312;BME280;34033;48.672;9.376;2023-01-31T12:39:25;99388.50;;;6.81;58.06
13312;BME280;34033;48.672;9.376;2023-01-31T12:47:29;99388.06;;;6.91;58.50
13312;BME280;34033;48.672;9.376;2023-01-31T12:56:02;99355.56;;;7.16;55.35
13312;BME280;34033;48.672;9.376;2023-01-31T12:58:48;99355.06;;;7.01;55.21
13312;BME280;34033;48.672;9.376;2023-01-31T13:01:26;99339.69;;;7.16;55.10
13312;BME280;34033;48.672;9.376;2023-01-31T13:06:39;99340.72;;;7.24;56.53
13312;BME280;34033;48.672;9.376;2023-01-31T13:09:16;99362.03;;;7.07;56.85
13312;BME280;34033;48.672;9.376;2023-01-31T13:14:16;99380.84;;;6.78;56.88
13312;BME280;34033;48.672;9.376;2023-01-31T13:16:46;99364.00;;;6.62;57.26
13312;BME280;34033;48.672;9.376;2023-01-31T13:19:34;99364.69;;;6.59;57.12
13312;BME280;34033;48.672;9.376;2023-01-31T13:22:06;99351.06;;;6.33;57.48
13312;BME280;34033;48.672;9.376;2023-01-31T13:24:37;99347.56;;;6.36;57.88
13312;BME280;34033;48.672;9.376;2023-01-31T13:27:20;99342.13;;;6.27;57.91
13312;BME280;34033;48.672;9.376;2023-01-31T13:29:58;99348.41;;;6.16;58.28
13312;BME280;34033;48.672;9.376;2023-01-31T13:32:32;99346.03;;;6.26;58.35
13312;BME280;34033;48.672;9.376;2023-01-31T13:35:12;99350.63;;;6.43;58.73
13312;BME280;34033;48.672;9.376;2023-01-31T13:37:43;99341.66;;;6.58;59.07
13312;BME280;34033;48.672;9.376;2023-01-31T13:40:26;99334.34;;;6.54;58.02
13312;BME280;34033;48.672;9.376;2023-01-31T13:42:54;99330.28;;;6.51;58.42
13312;BME280;34033;48.672;9.376;2023-01-31T13:45:26;99349.00;;;6.42;58.51
13312;BME280;34033;48.672;9.376;2023-01-31T13:48:08;99335.19;;;6.34;58.92
13312;BME280;34033;48.672;9.376;2023-01-31T13:50:40;99335.88;;;6.31;59.16
13312;BME280;34033;48.672;9.376;2023-01-31T13:53:13;99345.13;;;6.35;59.27
13312;BME280;34033;48.672;9.376;2023-01-31T13:55:43;99346.44;;;6.37;59.79
13312;BME280;34033;48.672;9.376;2023-01-31T13:58:22;99348.34;;;6.04;59.46
13312;BME280;34033;48.672;9.376;2023-01-31T14:00:56;99363.66;;;6.10;60.16
13312;BME280;34033;48.672;9.376;2023-01-31T14:03:25;99351.72;;;6.09;59.70
13312;BME280;34033;48.672;9.376;2023-01-31T14:05:53;99345.25;;;6.05;59.95
13312;BME280;34033;48.672;9.376;2023-01-31T14:08:40;99348.88;;;5.97;60.78
13312;BME280;34033;48.672;9.376;2023-01-31T14:14:10;99341.94;;;6.12;61.29
13312;BME280;34033;48.672;9.376;2023-01-31T14:16:43;99354.50;;;6.09;60.03
13312;BME280;34033;48.672;9.376;2023-01-31T14:32:43;99294.66;;;6.00;61.77
13312;BME280;34033;48.672;9.376;2023-01-31T14:40:25;99310.03;;;5.97;61.27
13312;BME280;34033;48.672;9.376;2023-01-31T14:49:05;99306.91;;;5.99;61.18
13312;BME280;34033;48.672;9.376;2023-01-31T14:59:40;99285.22;;;5.71;62.15
13312;BME280;34033;48.672;9.376;2023-01-31T15:05:18;99289.06;;;5.58;63.45
13312;BME280;34033;48.672;9.376;2023-01-31T15:16:02;99279.59;;;5.89;63.04
13312;BME280;34033;48.672;9.376;2023-01-31T15:18:29;99272.50;;;5.50;62.79
13312;BME280;34033;48.672;9.376;2023-01-31T15:20:57;99281.88;;;5.36;63.56
13312;BME280;34033;48.672;9.376;2023-01-31T15:23:27;99284.84;;;5.31;64.17
13312;BME280;34033;48.672;9.376;2023-01-31T15:25:54;99286.47;;;5.32;64.75
13312;BME280;34033;48.672;9.376;2023-01-31T15:28:34;99294.38;;;5.22;64.39
13312;BME280;34033;48.672;9.376;2023-01-31T15:31:12;99313.63;;;5.18;64.31